createdAt,value
2023-04-27T00:02:19.249Z,4.21
2023-04-27T00:05:13.615Z,4.20
2023-04-27T00:08:06.796Z,4.19
2023-04-27T00:11:01.113Z,4.17
2023-04-27T00:13:53.908Z,4.17
2023-04-27T00:16:46.067Z,4.16
2023-04-27T00:19:39.811Z,4.16
2023-04-27T00:22:32.869Z,4.15
2023-04-27T00:25:25.630Z,4.14
2023-04-27T00:28:02.635Z,4.13
2023-04-27T00:30:55.595Z,4.10
2023-04-27T00:33:48.545Z,4.09
2023-04-27T00:36:41.318Z,4.09
2023-04-27T00:39:35.649Z,4.10
2023-04-27T00:42:28.598Z,4.12
2023-04-27T00:45:21.574Z,4.14
2023-04-27T00:48:14.874Z,4.13
2023-04-27T00:51:06.581Z,4.15
2023-04-27T00:54:01.354Z,4.16
2023-04-27T00:56:54.245Z,4.17
2023-04-27T00:59:46.870Z,4.18
2023-04-27T01:02:40.544Z,4.18
2023-04-27T01:05:33.569Z,4.18
2023-04-27T01:08:26.540Z,4.18
2023-04-27T01:11:19.149Z,4.18
2023-04-27T01:14:11.850Z,4.19
2023-04-27T01:17:04.617Z,4.19
2023-04-27T01:19:51.591Z,4.20
2023-04-27T01:22:45.052Z,4.20
2023-04-27T01:25:30.676Z,4.19
2023-04-27T01:28:24.138Z,4.18
2023-04-27T01:31:17.128Z,4.16
2023-04-27T01:34:11.898Z,4.16
2023-04-27T01:37:04.834Z,4.15
2023-04-27T01:39:59.432Z,4.13
2023-04-27T01:42:50.645Z,4.13
2023-04-27T01:45:43.548Z,4.12
2023-04-27T01:48:37.204Z,4.11
2023-04-27T01:51:28.511Z,4.10
2023-04-27T01:54:21.324Z,4.10
2023-04-27T01:57:15.659Z,4.10
2023-04-27T02:00:10.627Z,4.10
2023-04-27T02:02:57.765Z,4.11
2023-04-27T02:05:50.879Z,4.12
2023-04-27T02:08:44.443Z,4.13
2023-04-27T02:11:36.974Z,4.14
2023-04-27T02:14:29.952Z,4.15
2023-04-27T02:17:23.111Z,4.14
2023-04-27T02:20:16.078Z,4.15
2023-04-27T02:23:08.860Z,4.14
2023-04-27T02:26:01.796Z,4.13
2023-04-27T02:28:54.559Z,4.12
2023-04-27T02:31:47.915Z,4.12
2023-04-27T02:34:41.500Z,4.12
2023-04-27T02:37:34.186Z,4.11
2023-04-27T02:40:26.720Z,4.10
2023-04-27T02:43:19.482Z,4.07
2023-04-27T02:46:12.551Z,4.07
2023-04-27T02:49:05.762Z,4.06
2023-04-27T02:51:52.787Z,4.05
2023-04-27T02:54:44.132Z,4.04
2023-04-27T02:57:37.690Z,4.01
2023-04-27T03:00:30.769Z,4.00
2023-04-27T03:03:25.248Z,4.01
2023-04-27T03:06:18.888Z,3.99
2023-04-27T03:09:14.969Z,3.99
2023-04-27T03:12:08.822Z,3.99
2023-04-27T03:15:02.298Z,3.98
2023-04-27T03:17:55.215Z,3.97
2023-04-27T03:20:49.398Z,3.97
2023-04-27T03:23:42.388Z,3.97
2023-04-27T03:26:35.445Z,3.95
2023-04-27T03:29:28.207Z,3.94
2023-04-27T03:32:21.189Z,3.94
2023-04-27T03:35:11.595Z,3.93
2023-04-27T03:38:05.930Z,3.93
2023-04-27T03:40:57.619Z,3.95
2023-04-27T03:44:10.510Z,3.96
2023-04-27T03:46:56.250Z,3.98
2023-04-27T03:49:50.417Z,4.02
2023-04-27T03:52:43.229Z,4.07
2023-04-27T03:55:39.155Z,4.11
2023-04-27T03:58:31.851Z,4.18
2023-04-27T04:01:27.792Z,4.23
2023-04-27T04:04:11.472Z,4.31
2023-04-27T04:07:06.813Z,4.40
2023-04-27T04:09:59.314Z,4.47
2023-04-27T04:12:54.239Z,4.53
2023-04-27T04:15:47.075Z,4.61
2023-04-27T04:18:41.011Z,4.67
2023-04-27T04:21:34.005Z,4.74
2023-04-27T04:24:28.817Z,4.84
2023-04-27T04:27:21.903Z,4.90
2023-04-27T04:30:17.322Z,4.98
2023-04-27T04:33:10.291Z,5.11
2023-04-27T04:36:07.000Z,5.28
2023-04-27T04:39:00.566Z,5.46
2023-04-27T04:41:53.290Z,5.61
2023-04-27T04:44:46.105Z,5.76
2023-04-27T04:47:39.848Z,5.98
2023-04-27T04:50:32.749Z,6.21
2023-04-27T04:53:26.343Z,6.47
2023-04-27T04:56:17.015Z,6.61
2023-04-27T04:59:10.101Z,6.63
2023-04-27T05:02:03.217Z,6.72
2023-04-27T05:04:57.964Z,6.75
2023-04-27T05:07:50.880Z,6.75
2023-04-27T05:10:34.405Z,6.72
2023-04-27T05:13:27.304Z,6.63
2023-04-27T05:16:20.386Z,6.64
2023-04-27T05:19:18.258Z,6.68
2023-04-27T05:22:11.301Z,6.68
2023-04-27T05:25:04.657Z,6.65
2023-04-27T05:27:57.676Z,6.65
2023-04-27T05:30:40.611Z,6.71
2023-04-27T05:33:34.140Z,6.66
2023-04-27T05:36:27.201Z,6.67
2023-04-27T05:39:19.916Z,6.72
2023-04-27T05:42:03.966Z,6.76
2023-04-27T05:44:56.677Z,6.87
2023-04-27T05:47:51.332Z,6.97
2023-04-27T05:50:44.304Z,7.10
2023-04-27T05:53:38.881Z,7.19
2023-04-27T05:56:32.016Z,7.21
2023-04-27T05:59:27.590Z,7.26
2023-04-27T06:02:11.512Z,7.34
2023-04-27T06:05:04.186Z,7.40
2023-04-27T06:07:57.086Z,7.53
2023-04-27T06:10:49.965Z,7.70
2023-04-27T06:13:42.666Z,7.81
2023-04-27T06:16:35.256Z,7.95
2023-04-27T06:19:13.017Z,8.05
2023-04-27T06:21:46.486Z,8.15
2023-04-27T06:24:19.387Z,8.22
2023-04-27T06:26:55.501Z,8.25
2023-04-27T06:29:30.005Z,8.36
2023-04-27T06:32:07.451Z,8.44
2023-04-27T06:34:40.519Z,8.54
2023-04-27T06:37:17.439Z,8.65
2023-04-27T06:39:59.550Z,8.78
2023-04-27T06:42:32.348Z,8.93
2023-04-27T06:45:24.995Z,9.04
2023-04-27T06:47:59.139Z,9.20
2023-04-27T06:50:34.917Z,9.25
2023-04-27T06:53:17.438Z,9.35
2023-04-27T06:56:00.137Z,9.40
2023-04-27T06:58:52.812Z,9.49
2023-04-27T07:01:34.599Z,9.68
2023-04-27T07:04:08.037Z,9.76
2023-04-27T07:07:00.781Z,9.88
2023-04-27T07:09:33.661Z,9.99
2023-04-27T07:12:08.948Z,10.14
2023-04-27T07:14:44.709Z,10.31
2023-04-27T07:17:17.188Z,10.46
2023-04-27T07:19:50.109Z,10.62
2023-04-27T07:22:22.827Z,10.78
2023-04-27T07:25:04.523Z,10.93
2023-04-27T07:27:41.625Z,11.08
2023-04-27T07:30:17.979Z,11.24
2023-04-27T07:33:11.147Z,11.30
2023-04-27T07:36:05.579Z,11.45
2023-04-27T07:38:58.822Z,11.32
2023-04-27T07:41:34.798Z,11.03
2023-04-27T07:44:18.990Z,10.80
2023-04-27T07:46:58.700Z,10.65
2023-04-27T07:49:34.408Z,10.48
2023-04-27T07:52:09.842Z,10.36
2023-04-27T07:55:03.234Z,10.16
2023-04-27T07:57:41.612Z,10.01
2023-04-27T08:00:17.983Z,9.94
2023-04-27T08:02:50.968Z,9.87
2023-04-27T08:05:24.617Z,9.85
2023-04-27T08:08:08.196Z,9.81
2023-04-27T08:10:48.998Z,9.86
2023-04-27T08:13:35.150Z,9.85
2023-04-27T08:16:08.512Z,9.91
2023-04-27T08:18:44.906Z,9.89
2023-04-27T08:21:18.441Z,9.97
2023-04-27T08:23:58.360Z,10.02
2023-04-27T08:26:30.892Z,10.07
2023-04-27T08:29:28.530Z,10.18
2023-04-27T08:32:00.916Z,10.29
2023-04-27T08:34:38.908Z,10.37
2023-04-27T08:37:15.166Z,10.48
2023-04-27T08:39:51.231Z,10.58
2023-04-27T08:42:58.334Z,10.63
2023-04-27T08:45:53.398Z,10.80
2023-04-27T08:48:36.305Z,11.04
2023-04-27T08:51:30.045Z,11.33
2023-04-27T08:54:08.882Z,11.60
2023-04-27T08:57:03.255Z,11.98
2023-04-27T09:00:02.220Z,12.27
2023-04-27T09:02:55.437Z,12.35
2023-04-27T09:06:03.650Z,12.47
2023-04-27T09:08:58.462Z,12.57
2023-04-27T09:11:51.395Z,12.82
2023-04-27T09:14:27.026Z,13.39
2023-04-27T09:17:00.337Z,13.72
2023-04-27T09:19:54.139Z,13.75
2023-04-27T09:22:46.250Z,13.47
2023-04-27T09:25:29.813Z,13.19
2023-04-27T09:28:04.966Z,12.93
2023-04-27T09:30:40.539Z,12.65
2023-04-27T09:33:16.244Z,12.29
2023-04-27T09:35:50.835Z,11.96
2023-04-27T09:38:24.332Z,11.61
2023-04-27T09:40:57.791Z,11.32
2023-04-27T09:43:32.166Z,11.20
2023-04-27T09:46:08.500Z,11.10
2023-04-27T09:48:53.994Z,11.20
2023-04-27T09:51:47.704Z,11.37
2023-04-27T09:54:22.045Z,11.56
2023-04-27T09:57:10.833Z,11.87
2023-04-27T10:00:11.116Z,12.19
2023-04-27T10:03:07.803Z,12.37
2023-04-27T10:06:05.158Z,12.55
2023-04-27T10:08:41.987Z,12.76
2023-04-27T10:11:19.643Z,13.04
2023-04-27T10:13:58.012Z,13.24
2023-04-27T10:16:45.618Z,13.23
2023-04-27T10:19:38.872Z,13.34
2023-04-27T10:22:45.949Z,13.54
2023-04-27T10:25:31.045Z,13.79
2023-04-27T10:28:08.438Z,14.06
2023-04-27T10:30:46.461Z,14.15
2023-04-27T10:33:24.185Z,14.12
2023-04-27T10:36:00.917Z,14.05
2023-04-27T10:38:33.997Z,14.01
2023-04-27T10:41:14.177Z,13.93
2023-04-27T10:43:56.057Z,13.68
2023-04-27T10:46:32.108Z,13.49
2023-04-27T10:49:10.791Z,13.33
2023-04-27T10:51:44.109Z,13.37
2023-04-27T10:54:16.895Z,13.50
2023-04-27T10:57:05.529Z,13.51
2023-04-27T10:59:51.650Z,13.49
2023-04-27T11:02:37.397Z,13.41
2023-04-27T11:05:33.163Z,13.26
2023-04-27T11:08:10.286Z,13.36
2023-04-27T11:10:50.380Z,13.58
2023-04-27T11:13:44.590Z,13.73
2023-04-27T11:16:20.867Z,13.99
2023-04-27T11:18:59.107Z,14.19
2023-04-27T11:21:35.756Z,14.48
2023-04-27T11:24:15.158Z,14.72
2023-04-27T11:26:54.818Z,15.02
2023-04-27T11:29:38.471Z,15.03
2023-04-27T11:32:20.113Z,15.01
2023-04-27T11:34:57.783Z,14.80
2023-04-27T11:37:34.598Z,14.73
2023-04-27T11:40:11.486Z,14.79
2023-04-27T11:42:47.135Z,14.76
2023-04-27T11:45:26.650Z,14.72
2023-04-27T11:48:04.121Z,14.61
2023-04-27T11:50:59.238Z,14.42
2023-04-27T11:53:37.053Z,14.15
2023-04-27T11:56:19.767Z,13.83
2023-04-27T11:59:25.764Z,13.53
2023-04-27T12:01:58.380Z,13.16
2023-04-27T12:04:32.257Z,12.76
2023-04-27T12:07:07.277Z,12.51
2023-04-27T12:09:42.289Z,12.42
2023-04-27T12:12:17.055Z,12.35
2023-04-27T12:14:49.895Z,12.29
2023-04-27T12:17:43.296Z,12.32
2023-04-27T12:20:36.551Z,12.30
2023-04-27T12:23:12.453Z,12.40
2023-04-27T12:25:45.651Z,12.59
2023-04-27T12:28:31.424Z,12.85
2023-04-27T12:31:08.628Z,13.09
2023-04-27T12:33:44.665Z,13.28
2023-04-27T12:36:30.145Z,13.28
2023-04-27T12:39:20.469Z,13.40
2023-04-27T12:42:00.671Z,13.54
2023-04-27T12:44:34.654Z,13.51
2023-04-27T12:47:17.425Z,13.46
2023-04-27T12:49:56.745Z,13.32
2023-04-27T12:52:31.932Z,13.28
2023-04-27T12:55:06.253Z,13.08
2023-04-27T12:57:59.170Z,12.82
2023-04-27T13:00:39.776Z,12.81
2023-04-27T13:03:12.654Z,12.78
2023-04-27T13:05:47.778Z,12.79
2023-04-27T13:08:20.560Z,12.86
2023-04-27T13:10:53.274Z,12.90
2023-04-27T13:13:27.127Z,12.90
2023-04-27T13:16:12.990Z,12.95
2023-04-27T13:18:49.967Z,12.94
2023-04-27T13:21:25.771Z,13.04
2023-04-27T13:24:09.449Z,13.17
2023-04-27T13:26:42.132Z,13.19
2023-04-27T13:29:34.957Z,13.32
2023-04-27T13:32:27.836Z,13.41
2023-04-27T13:35:20.962Z,13.50
2023-04-27T13:38:13.688Z,13.58
2023-04-27T13:40:58.102Z,13.64
2023-04-27T13:43:40.427Z,13.69
2023-04-27T13:46:15.550Z,13.69
2023-04-27T13:48:50.696Z,13.75
2023-04-27T13:51:23.301Z,13.92
2023-04-27T13:54:00.215Z,13.95
2023-04-27T13:56:35.962Z,13.94
2023-04-27T13:59:10.676Z,13.85
2023-04-27T14:01:45.516Z,13.66
2023-04-27T14:04:40.923Z,13.48
2023-04-27T14:07:13.523Z,13.20
2023-04-27T14:09:47.817Z,12.93
2023-04-27T14:12:23.052Z,12.78
2023-04-27T14:14:57.883Z,12.63
2023-04-27T14:17:33.414Z,12.53
2023-04-27T14:20:08.067Z,12.51
2023-04-27T14:22:40.767Z,12.57
2023-04-27T14:28:02.214Z,12.75
2023-04-27T14:30:36.025Z,12.70
2023-04-27T14:33:08.890Z,12.56
2023-04-27T14:35:45.133Z,12.42
2023-04-27T14:38:17.639Z,12.34
2023-04-27T14:40:50.046Z,12.25
2023-04-27T14:43:22.665Z,12.16
2023-04-27T14:46:01.885Z,12.04
2023-04-27T14:48:41.604Z,11.93
2023-04-27T14:51:14.079Z,11.87
2023-04-27T14:53:49.843Z,11.85
2023-04-27T14:56:24.333Z,11.80
2023-04-27T14:58:57.882Z,11.78
2023-04-27T15:01:30.583Z,11.75
2023-04-27T15:04:03.310Z,11.73
2023-04-27T15:06:36.201Z,11.74
2023-04-27T15:09:09.170Z,11.78
2023-04-27T15:11:44.382Z,11.83
2023-04-27T15:14:16.874Z,11.91
2023-04-27T15:16:49.547Z,11.95
2023-04-27T15:19:22.171Z,12.06
2023-04-27T15:21:54.640Z,12.19
2023-04-27T15:24:28.166Z,12.34
2023-04-27T15:27:00.960Z,12.33
2023-04-27T15:29:33.473Z,12.28
2023-04-27T15:32:06.302Z,12.28
2023-04-27T15:34:42.641Z,12.22
2023-04-27T15:37:15.366Z,12.15
2023-04-27T15:39:47.787Z,12.15
2023-04-27T15:42:20.613Z,12.18
2023-04-27T15:44:53.506Z,12.21
2023-04-27T15:47:26.245Z,12.17
2023-04-27T15:49:59.552Z,12.10
2023-04-27T15:52:33.944Z,11.96
2023-04-27T15:55:07.107Z,11.79
2023-04-27T15:57:40.036Z,11.60
2023-04-27T16:00:16.601Z,11.48
2023-04-27T16:02:49.571Z,11.41
2023-04-27T16:05:42.405Z,11.29
2023-04-27T16:08:15.539Z,11.20
2023-04-27T16:10:58.460Z,11.10
2023-04-27T16:13:51.313Z,10.95
2023-04-27T16:16:39.872Z,10.81
2023-04-27T16:19:12.680Z,10.69
2023-04-27T16:22:05.749Z,10.56
2023-04-27T16:24:38.416Z,10.48
2023-04-27T16:27:11.660Z,10.41
2023-04-27T16:29:44.036Z,10.36
2023-04-27T16:32:37.115Z,10.30
2023-04-27T16:35:15.384Z,10.24
2023-04-27T16:37:58.122Z,10.18
2023-04-27T16:40:33.541Z,10.14
2023-04-27T16:43:07.998Z,10.09
2023-04-27T16:45:44.127Z,10.04
2023-04-27T16:48:36.908Z,10.01
2023-04-27T16:51:14.110Z,10.00
2023-04-27T16:54:07.241Z,9.93
2023-04-27T16:56:43.502Z,9.83
2023-04-27T16:59:27.755Z,9.76
2023-04-27T17:02:16.487Z,9.73
2023-04-27T17:05:08.007Z,9.73
2023-04-27T17:07:50.867Z,9.68
2023-04-27T17:10:26.855Z,9.62
2023-04-27T17:13:02.598Z,9.58
2023-04-27T17:15:42.289Z,9.50
2023-04-27T17:18:18.393Z,9.44
2023-04-27T17:20:51.331Z,9.39
2023-04-27T17:23:26.849Z,9.37
2023-04-27T17:26:01.487Z,9.33
2023-04-27T17:28:37.254Z,9.31
2023-04-27T17:31:12.128Z,9.28
2023-04-27T17:33:52.464Z,9.22
2023-04-27T17:36:27.322Z,9.18
2023-04-27T17:39:03.495Z,9.14
2023-04-27T17:41:43.554Z,9.09
2023-04-27T17:44:19.804Z,9.04
2023-04-27T17:46:53.920Z,9.00
2023-04-27T17:49:46.685Z,8.94
2023-04-27T17:52:34.743Z,8.90
2023-04-27T17:55:27.597Z,8.84
2023-04-27T17:58:22.287Z,8.80
2023-04-27T18:01:15.277Z,8.76
2023-04-27T18:04:08.296Z,8.71
2023-04-27T18:07:01.385Z,8.64
2023-04-27T18:09:54.100Z,8.58
2023-04-27T18:12:46.883Z,8.53
2023-04-27T18:15:33.346Z,8.50
2023-04-27T18:18:27.037Z,8.46
2023-04-27T18:21:19.355Z,8.43
2023-04-27T18:24:12.479Z,8.39
2023-04-27T18:27:05.589Z,8.33
2023-04-27T18:29:58.662Z,8.24
2023-04-27T18:32:35.732Z,8.14
2023-04-27T18:35:12.554Z,8.03
2023-04-27T18:37:58.169Z,7.89
2023-04-27T18:40:51.143Z,7.78
2023-04-27T18:43:44.204Z,7.65
2023-04-27T18:46:37.047Z,7.51
2023-04-27T18:49:15.362Z,7.38
2023-04-27T18:51:53.140Z,7.25
2023-04-27T18:54:25.518Z,7.12
2023-04-27T18:57:02.521Z,6.97
2023-04-27T18:59:35.194Z,6.83
2023-04-27T19:02:08.168Z,6.69
2023-04-27T19:04:52.838Z,6.55
2023-04-27T19:07:32.651Z,6.40
2023-04-27T19:10:07.195Z,6.27
2023-04-27T19:13:01.016Z,6.15
2023-04-27T19:15:36.380Z,6.05
2023-04-27T19:18:10.939Z,5.97
2023-04-27T19:20:46.314Z,5.89
2023-04-27T19:23:19.893Z,5.82
2023-04-27T19:25:55.123Z,5.77
2023-04-27T19:28:29.908Z,5.74
2023-04-27T19:31:05.061Z,5.70
2023-04-27T19:33:46.741Z,5.67
2023-04-27T19:36:22.194Z,5.62
2023-04-27T19:38:55.268Z,5.58
2023-04-27T19:41:29.604Z,5.55
2023-04-27T19:44:02.065Z,5.52
2023-04-27T19:46:44.855Z,5.47
2023-04-27T19:49:27.592Z,5.43
2023-04-27T19:52:01.880Z,5.38
2023-04-27T19:54:36.044Z,5.34
2023-04-27T19:57:29.072Z,5.29
2023-04-27T20:00:15.856Z,5.25
2023-04-27T20:03:09.350Z,5.25
2023-04-27T20:05:52.900Z,5.24
2023-04-27T20:08:29.160Z,5.25
2023-04-27T20:11:02.360Z,5.26
2023-04-27T20:13:35.070Z,5.25
2023-04-27T20:16:10.183Z,5.24
2023-04-27T20:18:45.481Z,5.21
2023-04-27T20:21:18.314Z,5.17
2023-04-27T20:23:52.467Z,5.11
2023-04-27T20:26:26.158Z,5.05
2023-04-27T20:29:08.795Z,4.98
2023-04-27T20:31:41.601Z,4.93
2023-04-27T20:34:14.676Z,4.88
2023-04-27T20:36:47.441Z,4.84
2023-04-27T20:39:20.014Z,4.80
2023-04-27T20:41:52.779Z,4.76
2023-04-27T20:44:25.453Z,4.70
2023-04-27T20:46:57.767Z,4.64
2023-04-27T20:49:35.282Z,4.57
2023-04-27T20:52:09.291Z,4.49
2023-04-27T20:54:41.853Z,4.40
2023-04-27T20:57:14.582Z,4.30
2023-04-27T20:59:47.495Z,4.21
2023-04-27T21:02:20.548Z,4.10
2023-04-27T21:04:57.876Z,4.00
2023-04-27T21:07:33.265Z,3.92
2023-04-27T21:10:10.520Z,3.86
2023-04-27T21:12:48.160Z,3.82
2023-04-27T21:15:20.929Z,3.81
2023-04-27T21:17:53.885Z,3.80
2023-04-27T21:20:29.363Z,3.79
2023-04-27T21:23:01.817Z,3.79
2023-04-27T21:25:46.405Z,3.76
2023-04-27T21:28:40.321Z,3.74
2023-04-27T21:31:27.013Z,3.69
2023-04-27T21:34:04.725Z,3.66
2023-04-27T21:36:59.888Z,3.60
2023-04-27T21:39:32.704Z,3.56
2023-04-27T21:42:05.817Z,3.51
2023-04-27T21:44:38.350Z,3.45
2023-04-27T21:47:21.597Z,3.38
2023-04-27T21:50:08.714Z,3.31
2023-04-27T21:52:41.425Z,3.23
2023-04-27T21:55:17.415Z,3.15
2023-04-27T21:57:51.815Z,3.08
2023-04-27T22:00:25.896Z,3.00
2023-04-27T22:02:58.947Z,2.92
2023-04-27T22:05:33.730Z,2.82
2023-04-27T22:08:18.331Z,2.74
2023-04-27T22:10:51.026Z,2.64
2023-04-27T22:13:23.715Z,2.56
2023-04-27T22:15:56.504Z,2.51
2023-04-27T22:18:29.434Z,2.48
2023-04-27T22:21:04.092Z,2.46
2023-04-27T22:23:37.254Z,2.45
2023-04-27T22:26:12.282Z,2.45
2023-04-27T22:28:44.763Z,2.47
2023-04-27T22:31:17.605Z,2.51
2023-04-27T22:33:51.314Z,2.56
2023-04-27T22:36:35.852Z,2.59
2023-04-27T22:39:11.952Z,2.60
2023-04-27T22:41:45.932Z,2.59
2023-04-27T22:44:18.490Z,2.58
2023-04-27T22:46:51.352Z,2.55
2023-04-27T22:49:27.127Z,2.53
2023-04-27T22:52:00.057Z,2.50
2023-04-27T22:54:34.303Z,2.50
2023-04-27T22:57:06.778Z,2.52
2023-04-27T22:59:41.735Z,2.56
2023-04-27T23:02:14.054Z,2.59
2023-04-27T23:04:46.793Z,2.66
2023-04-27T23:07:23.439Z,2.75
2023-04-27T23:09:56.037Z,2.85
2023-04-27T23:12:31.784Z,2.95
2023-04-27T23:15:08.845Z,3.03
2023-04-27T23:17:44.524Z,3.08
2023-04-27T23:22:59.497Z,3.09
2023-04-27T23:25:36.248Z,3.06
2023-04-27T23:28:09.146Z,3.00
2023-04-27T23:30:44.631Z,2.94
2023-04-27T23:33:20.227Z,2.89
2023-04-27T23:35:54.737Z,2.86
2023-04-27T23:38:31.748Z,2.85
2023-04-27T23:41:07.013Z,2.86
2023-04-27T23:43:43.340Z,2.84
2023-04-27T23:46:19.180Z,2.83
2023-04-27T23:48:57.718Z,2.79
2023-04-27T23:51:31.029Z,2.71
2023-04-27T23:54:03.635Z,2.59
2023-04-27T23:56:36.841Z,2.45
2023-04-27T23:59:10.814Z,2.31
